Time;durP1;ratioP1;P1;durP2;ratioP2;P2;SDS_P1;SDS_P2;PMS_P1;PMS_P2;Temp;Humidity;BMP_temperature;BMP_pressure;BME280_temperature;BME280_humidity;BME280_pressure;Samples;Min_cycle;Max_cycle;Signal;HPM_P1;HPM_P2
2023/07/08 00:00:32;;;;;;;11.93;5.18;;;;;;;;;;5227318;28;20390;-69
2023/07/08 00:03:02;;;;;;;9.25;5.45;;;;;;;;;;5227820;28;20431;-70
2023/07/08 00:05:33;;;;;;;10.50;5.85;;;;;;;;;;5227388;28;20017;-70
2023/07/08 00:08:03;;;;;;;14.27;5.60;;;;;;;;;;5227019;28;20024;-70
2023/07/08 00:10:33;;;;;;;10.77;5.35;;;;;;;;;;5227136;28;20505;-70
2023/07/08 00:13:04;;;;;;;8.65;4.80;;;;;;;;;;5226980;28;20029;-69
2023/07/08 00:15:36;;;;;;;12.50;6.10;;;;;;;;;;5227060;28;20425;-69
2023/07/08 00:18:22;;;;;;;15.65;6.00;;;;;;;;;;5226769;28;20021;-69
2023/07/08 00:20:53;;;;;;;10.70;5.43;;;;;;;;;;5227081;28;20066;-70
2023/07/08 00:23:23;;;;;;;8.93;5.38;;;;;;;;;;5227282;28;20028;-69
2023/07/08 00:25:53;;;;;;;9.82;5.90;;;;;;;;;;5226539;28;20045;-70
2023/07/08 00:28:23;;;;;;;12.73;5.78;;;;;;;;;;5226958;28;20036;-70
2023/07/08 00:30:55;;;;;;;10.98;6.18;;;;;;;;;;5226650;28;20021;-70
2023/07/08 00:33:25;;;;;;;10.30;5.80;;;;;;;;;;5227090;28;20016;-70
2023/07/08 00:35:56;;;;;;;10.93;5.22;;;;;;;;;;5225822;28;20028;-69
2023/07/08 00:38:27;;;;;;;10.02;5.57;;;;;;;;;;5226814;28;20113;-70
2023/07/08 00:41:06;;;;;;;11.70;5.82;;;;;;;;;;5226945;28;20053;-69
2023/07/08 00:43:38;;;;;;;10.77;5.22;;;;;;;;;;5226632;28;20087;-70
2023/07/08 00:46:23;;;;;;;13.90;5.25;;;;;;;;;;5226017;28;20025;-70
2023/07/08 00:48:53;;;;;;;;;;;;;;;;;;5218715;28;20028;-70
2023/07/08 00:51:24;;;;;;;16.37;6.23;;;;;;;;;;5226627;28;19908;-70
2023/07/08 00:53:54;;;;;;;10.60;5.50;;;;;;;;;;5226615;28;20048;-70
2023/07/08 00:56:44;;;;;;;10.00;5.68;;;;;;;;;;5211675;28;20491;-70
2023/07/08 00:59:19;;;;;;;13.63;5.47;;;;;;;;;;5226360;28;20118;-70
2023/07/08 01:01:49;;;;;;;11.35;6.13;;;;;;;;;;5226695;28;20104;-70
2023/07/08 01:04:22;;;;;;;10.02;5.50;;;;;;;;;;5226963;28;20029;-70
2023/07/08 01:06:57;;;;;;;9.35;5.90;;;;;;;;;;5226077;28;20021;-70
2023/07/08 01:09:29;;;;;;;13.93;6.93;;;;;;;;;;5226445;28;20021;-69
2023/07/08 01:12:02;;;;;;;10.13;5.35;;;;;;;;;;5226510;28;20009;-70
2023/07/08 01:14:34;;;;;;;11.82;5.82;;;;;;;;;;5226355;28;20090;-70
2023/07/08 01:17:04;;;;;;;13.18;5.20;;;;;;;;;;5225884;28;20021;-70
2023/07/08 01:19:34;;;;;;;12.10;5.97;;;;;;;;;;5225814;28;20116;-70
2023/07/08 01:22:05;;;;;;;15.23;5.70;;;;;;;;;;5226122;28;20039;-70
2023/07/08 01:24:38;;;;;;;11.60;5.60;;;;;;;;;;5225940;28;20021;-70
2023/07/08 01:27:10;;;;;;;9.90;6.03;;;;;;;;;;5225498;28;20386;-70
2023/07/08 01:29:40;;;;;;;12.32;6.35;;;;;;;;;;5226064;28;20108;-70
2023/07/08 01:32:17;;;;;;;15.82;6.32;;;;;;;;;;5225595;28;20111;-69
2023/07/08 01:34:59;;;;;;;13.43;6.40;;;;;;;;;;5225890;28;20031;-70
2023/07/08 01:37:39;;;;;;;14.27;6.22;;;;;;;;;;5224250;28;20036;-70
2023/07/08 01:40:19;;;;;;;10.23;5.75;;;;;;;;;;5225364;28;20035;-70
2023/07/08 01:42:49;;;;;;;12.25;5.80;;;;;;;;;;5225370;28;20117;-70
2023/07/08 01:45:22;;;;;;;11.10;5.63;;;;;;;;;;5225510;28;20404;-70
2023/07/08 01:47:54;;;;;;;9.60;5.43;;;;;;;;;;5225043;28;20360;-70
2023/07/08 01:50:26;;;;;;;11.68;6.28;;;;;;;;;;5225206;28;20045;-69
2023/07/08 01:52:57;;;;;;;11.20;6.20;;;;;;;;;;5225243;28;20012;-69
2023/07/08 01:55:30;;;;;;;15.65;6.53;;;;;;;;;;5217231;28;20014;-69
2023/07/08 01:58:00;;;;;;;13.50;6.65;;;;;;;;;;5219782;28;20021;-70
2023/07/08 02:00:30;;;;;;;10.88;5.38;;;;;;;;;;5225348;28;20386;-69
2023/07/08 02:03:01;;;;;;;10.90;5.80;;;;;;;;;;5225299;28;20383;-69
2023/07/08 02:05:31;;;;;;;11.48;5.88;;;;;;;;;;5224794;28;20036;-69
2023/07/08 02:08:01;;;;;;;13.00;6.20;;;;;;;;;;5225027;28;20036;-69
2023/07/08 02:10:32;;;;;;;12.07;6.40;;;;;;;;;;5225345;28;20032;-70
2023/07/08 02:13:02;;;;;;;11.52;6.15;;;;;;;;;;5225196;28;20447;-69
2023/07/08 02:15:32;;;;;;;10.88;6.30;;;;;;;;;;5225355;28;20478;-71
2023/07/08 02:18:03;;;;;;;12.57;5.85;;;;;;;;;;5224212;28;20067;-72
2023/07/08 02:20:33;;;;;;;10.02;6.22;;;;;;;;;;5225097;28;20267;-72
2023/07/08 02:23:03;;;;;;;13.60;6.13;;;;;;;;;;5225064;28;20021;-72
2023/07/08 02:25:34;;;;;;;12.60;6.95;;;;;;;;;;5224752;28;20062;-71
2023/07/08 02:28:04;;;;;;;10.48;6.47;;;;;;;;;;5224568;28;20474;-71
2023/07/08 02:30:34;;;;;;;8.27;5.57;;;;;;;;;;5224751;28;20048;-71
2023/07/08 02:33:05;;;;;;;12.10;6.55;;;;;;;;;;5225066;28;20108;-71
2023/07/08 02:35:35;;;;;;;16.05;6.32;;;;;;;;;;5224589;28;20475;-71
2023/07/08 02:38:05;;;;;;;9.60;6.10;;;;;;;;;;5224781;28;20028;-71
2023/07/08 02:40:36;;;;;;;10.10;6.45;;;;;;;;;;5224858;28;20052;-71
2023/07/08 02:43:06;;;;;;;13.88;6.65;;;;;;;;;;5225114;28;20456;-71
2023/07/08 02:45:36;;;;;;;9.60;6.25;;;;;;;;;;5224540;28;20470;-71
2023/07/08 02:48:06;;;;;;;12.60;5.80;;;;;;;;;;5224404;28;20029;-71
2023/07/08 02:50:37;;;;;;;16.65;7.40;;;;;;;;;;5224592;28;20036;-71
2023/07/08 02:53:07;;;;;;;17.05;7.70;;;;;;;;;;5224478;28;20386;-70
2023/07/08 02:55:39;;;;;;;14.95;7.28;;;;;;;;;;5223708;28;20020;-71
2023/07/08 02:58:09;;;;;;;13.10;7.50;;;;;;;;;;5224192;28;20112;-71
2023/07/08 03:00:39;;;;;;;16.80;7.82;;;;;;;;;;5224520;28;20092;-71
2023/07/08 03:03:10;;;;;;;16.45;7.47;;;;;;;;;;5224358;28;20037;-71
2023/07/08 03:05:40;;;;;;;14.43;7.68;;;;;;;;;;5223946;28;20500;-71
2023/07/08 03:08:10;;;;;;;13.60;7.68;;;;;;;;;;5224588;28;20021;-71
2023/07/08 03:10:41;;;;;;;12.57;7.10;;;;;;;;;;5224167;28;20375;-71
2023/07/08 03:13:11;;;;;;;12.20;7.18;;;;;;;;;;5224436;28;20036;-71
2023/07/08 03:15:44;;;;;;;13.48;6.93;;;;;;;;;;5224006;28;20475;-71
2023/07/08 03:18:14;;;;;;;12.90;7.13;;;;;;;;;;5224206;28;20463;-71
2023/07/08 03:20:47;;;;;;;14.98;6.70;;;;;;;;;;5224253;28;20036;-71
2023/07/08 03:23:17;;;;;;;15.95;6.47;;;;;;;;;;5224341;28;20115;-71
2023/07/08 03:25:48;;;;;;;12.65;6.43;;;;;;;;;;5223536;28;20444;-71
2023/07/08 03:28:18;;;;;;;12.93;6.40;;;;;;;;;;5224131;28;20409;-71
2023/07/08 03:30:51;;;;;;;15.43;7.55;;;;;;;;;;5223794;28;20096;-71
2023/07/08 03:33:22;;;;;;;18.33;7.15;;;;;;;;;;5224312;28;20013;-71
2023/07/08 03:35:52;;;;;;;12.02;6.95;;;;;;;;;;5223612;28;20020;-71
2023/07/08 03:38:22;;;;;;;15.90;6.63;;;;;;;;;;5224517;28;20028;-71
2023/07/08 03:40:52;;;;;;;12.13;6.57;;;;;;;;;;5224227;28;20021;-71
2023/07/08 03:43:23;;;;;;;11.20;6.55;;;;;;;;;;5223753;28;20544;-71
2023/07/08 03:45:53;;;;;;;12.88;6.90;;;;;;;;;;5223750;28;20024;-71
2023/07/08 03:48:24;;;;;;;11.93;6.60;;;;;;;;;;5223720;28;20013;-71
2023/07/08 03:50:54;;;;;;;10.65;6.40;;;;;;;;;;5223499;28;20075;-71
2023/07/08 03:53:24;;;;;;;11.85;6.68;;;;;;;;;;5223776;28;20078;-71
2023/07/08 03:55:54;;;;;;;13.98;7.57;;;;;;;;;;5211603;28;20033;-71
2023/07/08 03:58:25;;;;;;;10.80;6.45;;;;;;;;;;5222287;28;20017;-71
2023/07/08 04:00:55;;;;;;;12.30;7.18;;;;;;;;;;5223840;28;20024;-71
2023/07/08 04:03:25;;;;;;;15.68;6.65;;;;;;;;;;5223868;28;20013;-72
2023/07/08 04:05:56;;;;;;;13.85;6.75;;;;;;;;;;5226705;28;20017;-71
2023/07/08 04:08:26;;;;;;;13.10;7.07;;;;;;;;;;5227620;28;20013;-71
2023/07/08 04:10:56;;;;;;;10.23;6.85;;;;;;;;;;5227337;28;20031;-71
2023/07/08 04:13:27;;;;;;;11.88;6.88;;;;;;;;;;5227888;28;20108;-71
2023/07/08 04:15:59;;;;;;;16.65;7.45;;;;;;;;;;5227193;28;20043;-71
2023/07/08 04:18:29;;;;;;;16.58;7.63;;;;;;;;;;5227323;28;20067;-71
2023/07/08 04:21:00;;;;;;;14.30;7.20;;;;;;;;;;5227088;28;20056;-71
2023/07/08 04:23:30;;;;;;;16.75;6.93;;;;;;;;;;5227308;28;20071;-71
2023/07/08 04:26:01;;;;;;;13.60;7.72;;;;;;;;;;5225590;28;20053;-71
2023/07/08 04:28:31;;;;;;;15.85;7.50;;;;;;;;;;5227224;28;20390;-71
2023/07/08 04:31:01;;;;;;;15.40;8.05;;;;;;;;;;5227091;28;20415;-71
2023/07/08 04:33:32;;;;;;;14.13;7.38;;;;;;;;;;5226982;28;20024;-71
2023/07/08 04:36:02;;;;;;;16.70;7.93;;;;;;;;;;5226840;28;20013;-71
2023/07/08 04:38:36;;;;;;;13.48;7.60;;;;;;;;;;5226825;28;20028;-71
2023/07/08 04:41:06;;;;;;;13.88;7.65;;;;;;;;;;5226972;28;20013;-71
2023/07/08 04:43:38;;;;;;;17.33;7.35;;;;;;;;;;5226552;28;20028;-71
2023/07/08 04:46:17;;;;;;;11.23;7.10;;;;;;;;;;5226535;28;20478;-71
2023/07/08 04:48:48;;;;;;;16.25;7.07;;;;;;;;;;5226620;28;20017;-71
2023/07/08 04:51:19;;;;;;;12.93;8.07;;;;;;;;;;5226855;28;20455;-71
2023/07/08 04:53:49;;;;;;;13.07;7.43;;;;;;;;;;5226557;28;20040;-71
2023/07/08 04:56:19;;;;;;;14.23;7.88;;;;;;;;;;5212343;28;20075;-70
2023/07/08 04:58:50;;;;;;;12.52;7.45;;;;;;;;;;5226667;28;20067;-71
2023/07/08 05:01:20;;;;;;;16.70;7.32;;;;;;;;;;5226605;28;20502;-71
2023/07/08 05:03:50;;;;;;;14.57;7.90;;;;;;;;;;5226658;28;20375;-72
2023/07/08 05:06:21;;;;;;;15.05;8.07;;;;;;;;;;5226396;28;20036;-71
2023/07/08 05:08:51;;;;;;;13.50;7.50;;;;;;;;;;5226161;28;20099;-72
2023/07/08 05:11:22;;;;;;;11.52;6.72;;;;;;;;;;5226336;28;20017;-71
2023/07/08 05:13:52;;;;;;;11.32;6.63;;;;;;;;;;5226609;28;20025;-71
2023/07/08 05:16:22;;;;;;;11.93;6.93;;;;;;;;;;5224636;28;20382;-71
2023/07/08 05:18:53;;;;;;;13.25;6.95;;;;;;;;;;5226153;28;20028;-71
2023/07/08 05:21:24;;;;;;;13.15;6.75;;;;;;;;;;5225963;28;20629;-71
2023/07/08 05:23:54;;;;;;;11.10;5.88;;;;;;;;;;5226000;28;20029;-71
2023/07/08 05:26:25;;;;;;;10.73;6.60;;;;;;;;;;5225896;28;20108;-71
2023/07/08 05:28:55;;;;;;;11.55;6.97;;;;;;;;;;5225876;28;20017;-72
2023/07/08 05:31:25;;;;;;;11.73;6.43;;;;;;;;;;5226218;28;20391;-71
2023/07/08 05:33:56;;;;;;;11.85;6.50;;;;;;;;;;5225681;28;20019;-71
2023/07/08 05:36:26;;;;;;;16.25;7.13;;;;;;;;;;5225596;28;20083;-72
2023/07/08 05:38:56;;;;;;;11.45;6.60;;;;;;;;;;5225638;28;20102;-72
2023/07/08 05:41:26;;;;;;;12.50;5.65;;;;;;;;;;5225847;28;20032;-71
2023/07/08 05:43:57;;;;;;;11.60;6.20;;;;;;;;;;5225394;28;20116;-71
2023/07/08 05:46:27;;;;;;;12.38;5.88;;;;;;;;;;5224965;28;20058;-71
2023/07/08 05:48:58;;;;;;;14.95;6.40;;;;;;;;;;5225499;28;20075;-72
2023/07/08 05:51:28;;;;;;;10.93;6.30;;;;;;;;;;5225428;28;20028;-71
2023/07/08 05:53:58;;;;;;;13.57;6.68;;;;;;;;;;5225418;28;20128;-71
2023/07/08 05:56:30;;;;;;;14.00;6.07;;;;;;;;;;5211453;28;20067;-71
2023/07/08 05:59:00;;;;;;;13.07;6.05;;;;;;;;;;5225396;28;20082;-71
2023/07/08 06:01:31;;;;;;;10.82;6.13;;;;;;;;;;5225318;28;20499;-72
2023/07/08 06:04:01;;;;;;;10.95;6.13;;;;;;;;;;5225555;28;20096;-71
2023/07/08 06:06:33;;;;;;;9.20;5.82;;;;;;;;;;5224869;28;20017;-72
2023/07/08 06:09:03;;;;;;;10.60;5.60;;;;;;;;;;5225024;28;20050;-72
2023/07/08 06:11:34;;;;;;;11.70;6.82;;;;;;;;;;5225192;28;20016;-72
2023/07/08 06:14:04;;;;;;;10.20;6.00;;;;;;;;;;5225162;28;20017;-72
2023/07/08 06:16:35;;;;;;;10.07;5.95;;;;;;;;;;5224625;28;20024;-72
2023/07/08 06:19:05;;;;;;;9.82;5.82;;;;;;;;;;5224954;28;20456;-72
2023/07/08 06:21:36;;;;;;;11.40;5.85;;;;;;;;;;5224682;28;20056;-72
2023/07/08 06:24:07;;;;;;;8.57;5.35;;;;;;;;;;5225256;28;20020;-72
2023/07/08 06:26:37;;;;;;;14.00;5.57;;;;;;;;;;5224293;28;20025;-72
2023/07/08 06:29:07;;;;;;;9.38;5.65;;;;;;;;;;5224766;28;20151;-73
2023/07/08 06:31:38;;;;;;;9.40;6.03;;;;;;;;;;5225067;28;20392;-72
2023/07/08 06:34:08;;;;;;;12.40;6.70;;;;;;;;;;5224374;28;20017;-72
2023/07/08 06:36:38;;;;;;;12.25;6.18;;;;;;;;;;5224290;28;20048;-73
2023/07/08 06:39:11;;;;;;;10.48;6.22;;;;;;;;;;5225057;28;20047;-73
2023/07/08 06:41:41;;;;;;;11.77;6.20;;;;;;;;;;5224668;28;20037;-73
2023/07/08 06:44:11;;;;;;;9.40;5.90;;;;;;;;;;5224710;28;20400;-73
2023/07/08 06:46:42;;;;;;;13.95;6.28;;;;;;;;;;5223808;28;20322;-73
2023/07/08 06:49:12;;;;;;;10.32;6.53;;;;;;;;;;5224678;28;20017;-73
2023/07/08 06:51:44;;;;;;;10.15;5.70;;;;;;;;;;5224482;28;20021;-73
2023/07/08 06:54:15;;;;;;;9.77;5.95;;;;;;;;;;5224597;28;20104;-73
2023/07/08 06:56:45;;;;;;;12.75;6.35;;;;;;;;;;5210534;28;20443;-73
2023/07/08 06:59:15;;;;;;;11.13;6.15;;;;;;;;;;5223210;28;20036;-73
2023/07/08 07:01:46;;;;;;;10.98;6.20;;;;;;;;;;5224375;28;20033;-73
2023/07/08 07:04:16;;;;;;;8.90;5.77;;;;;;;;;;5224469;28;20056;-73
2023/07/08 07:06:46;;;;;;;14.82;6.13;;;;;;;;;;5224432;28;20401;-73
2023/07/08 07:09:16;;;;;;;11.80;7.03;;;;;;;;;;5224288;28;20051;-73
2023/07/08 07:11:47;;;;;;;10.63;6.07;;;;;;;;;;5224055;28;20259;-73
2023/07/08 07:14:17;;;;;;;13.37;6.30;;;;;;;;;;5224354;28;20294;-73
2023/07/08 07:16:47;;;;;;;8.63;6.13;;;;;;;;;;5223782;28;20320;-73
2023/07/08 07:19:18;;;;;;;13.73;6.45;;;;;;;;;;5224071;28;20259;-73
2023/07/08 07:21:48;;;;;;;14.80;7.00;;;;;;;;;;5224994;28;20516;-73
2023/07/08 07:24:18;;;;;;;13.93;6.05;;;;;;;;;;5223853;28;20252;-73
2023/07/08 07:26:49;;;;;;;12.02;5.70;;;;;;;;;;5224018;28;20025;-71
2023/07/08 07:29:21;;;;;;;11.53;6.60;;;;;;;;;;5224991;28;20379;-72
2023/07/08 07:31:52;;;;;;;10.48;6.05;;;;;;;;;;5224880;28;20255;-72
2023/07/08 07:34:22;;;;;;;10.27;6.20;;;;;;;;;;5224394;28;20078;-71
2023/07/08 07:36:52;;;;;;;11.18;6.57;;;;;;;;;;5224397;28;20269;-71
2023/07/08 07:39:23;;;;;;;10.45;6.55;;;;;;;;;;5226140;28;20483;-71
2023/07/08 07:41:53;;;;;;;12.20;6.50;;;;;;;;;;5228939;28;20290;-71
2023/07/08 07:44:24;;;;;;;10.63;6.97;;;;;;;;;;5228547;28;20282;-71
2023/07/08 07:46:54;;;;;;;10.55;5.85;;;;;;;;;;5227303;28;20283;-71
2023/07/08 07:49:25;;;;;;;10.88;6.43;;;;;;;;;;5227997;28;20021;-72
2023/07/08 07:51:55;;;;;;;10.93;6.35;;;;;;;;;;5227939;28;20394;-72
2023/07/08 07:54:26;;;;;;;10.10;6.47;;;;;;;;;;5227798;28;20017;-72
2023/07/08 07:56:56;;;;;;;12.80;7.40;;;;;;;;;;5214001;28;20028;-72
2023/07/08 07:59:26;;;;;;;11.83;6.57;;;;;;;;;;5227453;28;20514;-72
2023/07/08 08:01:57;;;;;;;12.63;6.70;;;;;;;;;;5227656;28;20275;-72
2023/07/08 08:04:27;;;;;;;11.27;5.90;;;;;;;;;;5227503;28;20258;-72
2023/07/08 08:06:57;;;;;;;13.83;6.73;;;;;;;;;;5227609;28;20279;-72
2023/07/08 08:09:27;;;;;;;10.07;6.43;;;;;;;;;;5227439;28;20677;-72
2023/07/08 08:11:58;;;;;;;11.65;6.47;;;;;;;;;;5227307;28;20247;-72
2023/07/08 08:14:28;;;;;;;12.87;6.93;;;;;;;;;;5227376;28;20013;-72
2023/07/08 08:16:58;;;;;;;10.93;7.03;;;;;;;;;;5227220;28;20259;-72
2023/07/08 08:19:29;;;;;;;11.67;6.60;;;;;;;;;;5227312;28;20274;-72
2023/07/08 08:21:59;;;;;;;11.27;6.67;;;;;;;;;;5227397;28;20263;-72
2023/07/08 08:24:29;;;;;;;12.65;6.88;;;;;;;;;;5226904;28;20279;-72
2023/07/08 08:27:00;;;;;;;11.93;7.33;;;;;;;;;;5226799;28;20100;-72
2023/07/08 08:29:30;;;;;;;11.45;6.57;;;;;;;;;;5227280;28;20434;-72
2023/07/08 08:32:00;;;;;;;11.70;7.13;;;;;;;;;;5227102;28;20032;-72
2023/07/08 08:34:31;;;;;;;12.90;6.87;;;;;;;;;;5227203;28;20299;-72
2023/07/08 08:37:02;;;;;;;15.88;7.05;;;;;;;;;;5226298;28;20372;-72
2023/07/08 08:39:32;;;;;;;12.68;6.53;;;;;;;;;;5227159;28;20104;-72
2023/07/08 08:42:03;;;;;;;10.52;6.40;;;;;;;;;;5226932;28;20036;-72
2023/07/08 08:44:35;;;;;;;12.93;7.03;;;;;;;;;;5227189;28;20027;-73
2023/07/08 08:47:11;;;;;;;12.48;6.63;;;;;;;;;;5226349;28;20399;-72
2023/07/08 08:49:44;;;;;;;12.77;7.28;;;;;;;;;;5226244;28;20375;-72
2023/07/08 08:52:15;;;;;;;13.07;6.57;;;;;;;;;;5227041;28;20024;-73
2023/07/08 08:54:45;;;;;;;12.90;7.13;;;;;;;;;;5224459;28;20172;-72
2023/07/08 08:57:25;;;;;;;15.25;6.70;;;;;;;;;;5215075;28;20490;-72
2023/07/08 08:59:57;;;;;;;11.40;6.28;;;;;;;;;;5226212;28;20505;-72
2023/07/08 09:02:41;;;;;;;12.35;6.40;;;;;;;;;;5226577;28;20108;-72
2023/07/08 09:05:11;;;;;;;14.90;6.97;;;;;;;;;;5213649;28;20108;-73
2023/07/08 09:07:42;;;;;;;13.95;7.43;;;;;;;;;;5226404;28;20473;-72
2023/07/08 09:10:20;;;;;;;12.50;7.07;;;;;;;;;;5226024;28;20028;-73
2023/07/08 09:12:51;;;;;;;16.00;7.28;;;;;;;;;;5226398;28;20013;-73
2023/07/08 09:15:22;;;;;;;9.65;6.63;;;;;;;;;;5226636;28;20021;-72
2023/07/08 09:17:53;;;;;;;14.67;7.57;;;;;;;;;;5225778;28;20368;-73
2023/07/08 09:20:27;;;;;;;12.20;7.72;;;;;;;;;;5226349;28;20282;-72
2023/07/08 09:23:18;;;;;;;10.52;6.88;;;;;;;;;;5225831;28;20025;-72
2023/07/08 09:25:52;;;;;;;12.50;7.30;;;;;;;;;;5225486;28;20024;-72
2023/07/08 09:28:22;;;;;;;;;;;;;;;;;;5226406;28;20021;-72
2023/07/08 09:30:53;;;;;;;19.75;7.55;;;;;;;;;;5225839;28;20230;-73
2023/07/08 09:33:24;;;;;;;14.13;7.47;;;;;;;;;;5225638;28;20017;-73
2023/07/08 09:35:54;;;;;;;11.88;7.38;;;;;;;;;;5225744;28;20395;-73
2023/07/08 09:38:24;;;;;;;12.43;6.87;;;;;;;;;;5225646;28;20033;-73
2023/07/08 09:40:56;;;;;;;13.83;7.63;;;;;;;;;;5224435;28;20279;-73
2023/07/08 09:43:27;;;;;;;12.25;6.93;;;;;;;;;;5225714;28;20263;-73
2023/07/08 09:45:59;;;;;;;14.95;7.32;;;;;;;;;;5224889;28;20017;-72
2023/07/08 09:48:33;;;;;;;11.27;7.00;;;;;;;;;;5225429;28;20067;-73
2023/07/08 09:51:04;;;;;;;15.30;7.43;;;;;;;;;;5225571;28;20037;-73
2023/07/08 09:53:34;;;;;;;14.80;7.40;;;;;;;;;;5226029;28;20057;-73
2023/07/08 09:56:06;;;;;;;13.93;7.05;;;;;;;;;;5211932;28;20378;-73
2023/07/08 09:58:41;;;;;;;13.57;7.35;;;;;;;;;;5225070;28;20017;-73
2023/07/08 10:01:13;;;;;;;13.68;7.65;;;;;;;;;;5225090;28;20078;-72
2023/07/08 10:03:43;;;;;;;12.48;7.32;;;;;;;;;;5225208;28;20445;-73
2023/07/08 10:06:16;;;;;;;12.60;7.80;;;;;;;;;;5224745;28;20021;-73
2023/07/08 10:08:46;;;;;;;12.60;7.53;;;;;;;;;;5224905;28;20028;-73
2023/07/08 10:11:17;;;;;;;14.27;7.40;;;;;;;;;;5225214;28;20474;-73
2023/07/08 10:13:50;;;;;;;12.17;7.57;;;;;;;;;;5225658;28;20252;-72
2023/07/08 10:16:38;;;;;;;12.63;8.32;;;;;;;;;;5224558;28;20265;-73
2023/07/08 10:19:27;;;;;;;14.20;7.18;;;;;;;;;;5224992;28;20028;-73
2023/07/08 10:22:15;;;;;;;13.30;7.50;;;;;;;;;;5225263;28;20382;-73
2023/07/08 10:24:46;;;;;;;14.77;7.97;;;;;;;;;;5213755;28;20025;-73
2023/07/08 10:27:16;;;;;;;13.13;7.77;;;;;;;;;;5224307;28;20032;-72
2023/07/08 10:29:52;;;;;;;12.35;7.32;;;;;;;;;;5224645;28;20029;-73
2023/07/08 10:32:23;;;;;;;14.10;7.53;;;;;;;;;;5224800;28;20024;-73
2023/07/08 10:35:12;;;;;;;15.07;7.43;;;;;;;;;;5224882;28;20021;-73
2023/07/08 10:37:52;;;;;;;13.07;7.63;;;;;;;;;;5212694;28;20252;-73
2023/07/08 10:40:41;;;;;;;11.75;7.38;;;;;;;;;;5224724;28;20359;-73
2023/07/08 10:43:29;;;;;;;12.82;7.28;;;;;;;;;;5224718;28;20403;-73
2023/07/08 10:46:00;;;;;;;12.50;7.22;;;;;;;;;;5224277;28;20035;-73
2023/07/08 10:48:49;;;;;;;13.37;7.47;;;;;;;;;;5224197;28;20029;-73
2023/07/08 10:51:26;;;;;;;12.85;7.47;;;;;;;;;;5224414;28;20256;-73
2023/07/08 10:53:56;;;;;;;14.20;7.72;;;;;;;;;;5225209;28;20133;-73
2023/07/08 10:56:43;;;;;;;13.65;7.03;;;;;;;;;;5210216;28;20033;-73
2023/07/08 10:59:15;;;;;;;13.50;7.75;;;;;;;;;;5224488;28;20108;-73
2023/07/08 11:02:04;;;;;;;12.10;7.18;;;;;;;;;;5224229;28;20040;-73
2023/07/08 11:04:50;;;;;;;14.98;8.20;;;;;;;;;;5224789;28;20017;-73
2023/07/08 11:07:37;;;;;;;13.63;7.32;;;;;;;;;;5223543;28;20025;-73
2023/07/08 11:10:29;;;;;;;13.13;7.68;;;;;;;;;;5224618;28;20482;-73
2023/07/08 11:13:15;;;;;;;18.08;8.15;;;;;;;;;;5224321;28;20066;-73
2023/07/08 11:15:48;;;;;;;13.50;7.32;;;;;;;;;;5227296;28;20128;-73
2023/07/08 11:18:25;;;;;;;11.32;7.20;;;;;;;;;;5228647;28;20024;-73
2023/07/08 11:20:59;;;;;;;12.93;7.85;;;;;;;;;;5228421;28;20040;-73
2023/07/08 11:23:33;;;;;;;11.50;8.10;;;;;;;;;;5228597;28;20024;-73
2023/07/08 11:26:04;;;;;;;17.77;8.15;;;;;;;;;;5227780;28;20083;-73
2023/07/08 11:28:34;;;;;;;11.45;7.35;;;;;;;;;;5228006;28;20040;-73
2023/07/08 11:31:05;;;;;;;13.43;7.50;;;;;;;;;;5228552;28;20021;-73
2023/07/08 11:33:36;;;;;;;11.80;7.55;;;;;;;;;;5227312;28;20260;-73
2023/07/08 11:36:07;;;;;;;10.85;7.40;;;;;;;;;;5227691;28;20017;-73
2023/07/08 11:38:47;;;;;;;9.80;6.68;;;;;;;;;;5227880;28;20017;-73
2023/07/08 11:41:18;;;;;;;12.05;7.65;;;;;;;;;;5228392;28;20028;-73
2023/07/08 11:43:51;;;;;;;9.85;6.55;;;;;;;;;;5228091;28;20481;-73
2023/07/08 11:46:25;;;;;;;15.60;7.45;;;;;;;;;;5227923;28;20475;-73
2023/07/08 11:48:57;;;;;;;13.20;7.60;;;;;;;;;;5227544;28;20024;-73
2023/07/08 11:51:30;;;;;;;10.77;7.38;;;;;;;;;;5227972;28;20390;-73
2023/07/08 11:54:19;;;;;;;12.35;7.68;;;;;;;;;;5228035;28;20062;-73
2023/07/08 11:56:56;;;;;;;12.88;6.95;;;;;;;;;;5214469;28;20060;-73
2023/07/08 11:59:42;;;;;;;12.45;7.38;;;;;;;;;;5227854;28;20327;-73
2023/07/08 12:02:14;;;;;;;12.13;7.85;;;;;;;;;;5227830;28;20111;-73
2023/07/08 12:05:02;;;;;;;15.98;7.50;;;;;;;;;;5227865;28;20025;-73
2023/07/08 12:07:36;;;;;;;12.68;7.30;;;;;;;;;;5226810;28;20040;-73
2023/07/08 12:10:22;;;;;;;13.48;7.20;;;;;;;;;;5227672;28;20096;-73
2023/07/08 12:12:53;;;;;;;12.40;7.30;;;;;;;;;;5227548;28;20021;-73
2023/07/08 12:15:24;;;;;;;15.70;7.90;;;;;;;;;;5227657;28;20024;-73
2023/07/08 12:17:56;;;;;;;13.80;7.00;;;;;;;;;;5226381;28;20139;-73
2023/07/08 12:20:29;;;;;;;13.27;7.72;;;;;;;;;;5227634;28;20025;-73
2023/07/08 12:23:00;;;;;;;13.10;7.68;;;;;;;;;;5226768;28;20095;-72
2023/07/08 12:25:32;;;;;;;10.80;7.18;;;;;;;;;;5225228;28;20027;-73
2023/07/08 12:28:02;;;;;;;15.38;8.60;;;;;;;;;;5226760;28;20024;-73
2023/07/08 12:30:33;;;;;;;10.65;6.85;;;;;;;;;;5226924;28;20020;-73
2023/07/08 12:33:08;;;;;;;14.18;7.53;;;;;;;;;;5227336;28;20378;-73
2023/07/08 12:35:39;;;;;;;16.70;6.75;;;;;;;;;;5226966;28;20079;-73
2023/07/08 12:38:24;;;;;;;11.35;6.18;;;;;;;;;;5227100;28;20013;-73
2023/07/08 12:40:57;;;;;;;14.35;6.25;;;;;;;;;;5226837;28;20159;-73
2023/07/08 12:43:27;;;;;;;11.57;6.82;;;;;;;;;;5226938;28;20478;-73
2023/07/08 12:45:58;;;;;;;13.07;6.30;;;;;;;;;;5226801;28;20040;-73
2023/07/08 12:48:43;;;;;;;15.88;7.55;;;;;;;;;;5226663;28;20423;-73
2023/07/08 12:51:16;;;;;;;12.20;6.13;;;;;;;;;;5226789;28;20032;-73
2023/07/08 12:53:46;;;;;;;11.57;6.75;;;;;;;;;;5227277;28;20498;-73
2023/07/08 12:56:17;;;;;;;12.02;5.72;;;;;;;;;;5212759;28;20321;-73
2023/07/08 12:58:50;;;;;;;11.80;5.88;;;;;;;;;;5226706;28;20028;-74
2023/07/08 13:01:24;;;;;;;13.68;6.18;;;;;;;;;;5226344;28;20386;-73
2023/07/08 13:03:56;;;;;;;9.80;5.60;;;;;;;;;;5226290;28;20013;-73
2023/07/08 13:06:28;;;;;;;13.10;5.85;;;;;;;;;;5226203;28;20098;-73
2023/07/08 13:09:02;;;;;;;9.68;6.07;;;;;;;;;;5226473;28;20024;-74
2023/07/08 13:11:32;;;;;;;12.95;5.75;;;;;;;;;;5226159;28;20013;-73
2023/07/08 13:14:06;;;;;;;11.68;5.65;;;;;;;;;;5225063;28;20025;-73
2023/07/08 13:16:36;;;;;;;10.85;5.68;;;;;;;;;;5225759;28;20032;-73
2023/07/08 13:19:08;;;;;;;9.52;5.63;;;;;;;;;;5226253;28;20475;-73
2023/07/08 13:21:40;;;;;;;12.77;5.72;;;;;;;;;;5227154;28;20425;-73
2023/07/08 13:24:11;;;;;;;12.45;5.95;;;;;;;;;;5226197;28;20021;-73
2023/07/08 13:26:44;;;;;;;14.93;4.93;;;;;;;;;;5225173;28;20078;-73
2023/07/08 13:29:15;;;;;;;11.25;4.50;;;;;;;;;;5226108;28;20021;-72
2023/07/08 13:31:48;;;;;;;9.60;3.85;;;;;;;;;;5226144;28;20027;-72
2023/07/08 13:34:20;;;;;;;7.28;3.60;;;;;;;;;;5226360;28;20021;-72
2023/07/08 13:36:51;;;;;;;10.55;3.17;;;;;;;;;;5224421;28;20600;-72
2023/07/08 13:39:26;;;;;;;6.45;3.00;;;;;;;;;;5225727;28;20020;-72
2023/07/08 13:41:57;;;;;;;7.75;3.25;;;;;;;;;;5225779;28;20024;-72
2023/07/08 13:44:27;;;;;;;3.70;2.72;;;;;;;;;;5226117;28;20478;-72
2023/07/08 13:46:58;;;;;;;7.18;2.72;;;;;;;;;;5225207;28;20033;-72
2023/07/08 13:49:29;;;;;;;7.82;3.05;;;;;;;;;;5225477;28;20017;-72
2023/07/08 13:52:19;;;;;;;6.90;2.70;;;;;;;;;;5225691;28;20021;-72
2023/07/08 13:54:52;;;;;;;6.35;2.83;;;;;;;;;;5222843;28;20028;-71
2023/07/08 13:57:27;;;;;;;7.53;2.92;;;;;;;;;;5214883;28;20031;-71
2023/07/08 13:59:58;;;;;;;7.85;3.38;;;;;;;;;;5224980;28;20078;-71
2023/07/08 14:02:30;;;;;;;7.15;2.60;;;;;;;;;;5225352;28;20028;-71
2023/07/08 14:05:03;;;;;;;9.82;3.63;;;;;;;;;;5225414;28;20139;-71
2023/07/08 14:07:33;;;;;;;9.00;2.92;;;;;;;;;;5224709;28;20052;-70
2023/07/08 14:10:21;;;;;;;9.57;3.25;;;;;;;;;;5225056;28;20053;-71
2023/07/08 14:12:52;;;;;;;8.50;3.30;;;;;;;;;;5225137;28;20017;-71
2023/07/08 14:15:23;;;;;;;8.05;3.15;;;;;;;;;;5225140;28;20303;-71
2023/07/08 14:17:53;;;;;;;7.93;3.88;;;;;;;;;;5224509;28;20017;-71
2023/07/08 14:20:27;;;;;;;9.50;3.20;;;;;;;;;;5225072;28;20052;-71
2023/07/08 14:22:57;;;;;;;9.80;3.25;;;;;;;;;;5224951;28;20522;-70
2023/07/08 14:25:27;;;;;;;10.80;3.67;;;;;;;;;;5224880;28;20033;-71
2023/07/08 14:27:58;;;;;;;9.88;3.90;;;;;;;;;;5224547;28;20021;-71
2023/07/08 14:30:28;;;;;;;7.32;3.20;;;;;;;;;;5225447;28;20513;-72
2023/07/08 14:32:59;;;;;;;11.02;3.67;;;;;;;;;;5224899;28;20474;-71
2023/07/08 14:35:29;;;;;;;7.70;3.92;;;;;;;;;;5224364;28;20290;-71
2023/07/08 14:38:00;;;;;;;9.75;3.50;;;;;;;;;;5224512;28;20082;-71
2023/07/08 14:40:45;;;;;;;7.95;3.42;;;;;;;;;;5224685;28;20100;-71
2023/07/08 14:43:18;;;;;;;8.02;3.33;;;;;;;;;;5224663;28;20104;-71
2023/07/08 14:45:50;;;;;;;6.95;3.05;;;;;;;;;;5224483;28;20020;-71
2023/07/08 14:48:20;;;;;;;8.45;3.53;;;;;;;;;;5224151;28;20498;-71
2023/07/08 14:50:50;;;;;;;7.97;3.95;;;;;;;;;;5224842;28;20074;-71
2023/07/08 14:53:21;;;;;;;7.90;3.40;;;;;;;;;;5224598;28;20017;-72
2023/07/08 14:55:52;;;;;;;9.35;3.30;;;;;;;;;;5213168;28;20360;-71
2023/07/08 14:58:22;;;;;;;7.55;3.22;;;;;;;;;;5221838;28;20075;-72
2023/07/08 15:00:54;;;;;;;11.85;3.90;;;;;;;;;;5224514;28;20025;-72
2023/07/08 15:03:25;;;;;;;10.02;3.03;;;;;;;;;;5224413;28;20379;-71